createdAt,value
2017-12-20T00:01:11.275Z,12.23
2017-12-20T00:03:38.284Z,11.50
2017-12-20T00:06:04.634Z,11.50
2017-12-20T00:08:31.206Z,11.90
2017-12-20T00:10:57.567Z,11.65
2017-12-20T00:13:23.902Z,11.32
2017-12-20T00:15:50.201Z,12.30
2017-12-20T00:18:16.522Z,11.05
2017-12-20T00:20:42.827Z,10.65
2017-12-20T00:23:09.221Z,11.15
2017-12-20T00:25:36.908Z,10.38
2017-12-20T00:28:03.329Z,11.45
2017-12-20T00:30:29.645Z,10.50
2017-12-20T00:32:56.708Z,9.70
2017-12-20T00:35:24.148Z,10.18
2017-12-20T00:37:50.498Z,9.85
2017-12-20T00:40:16.843Z,10.15
2017-12-20T00:42:43.111Z,8.45
2017-12-20T00:45:09.625Z,10.45
2017-12-20T00:47:35.993Z,10.50
2017-12-20T00:50:03.879Z,9.15
2017-12-20T00:52:31.022Z,9.73
2017-12-20T00:54:57.334Z,9.00
2017-12-20T00:57:23.770Z,9.95
2017-12-20T00:59:50.080Z,9.88
2017-12-20T01:02:16.377Z,10.13
2017-12-20T01:04:43.424Z,9.32
2017-12-20T01:07:09.779Z,10.85
2017-12-20T01:09:36.161Z,10.10
2017-12-20T01:12:02.369Z,10.70
2017-12-20T01:14:28.696Z,11.15
2017-12-20T01:16:55.041Z,10.90
2017-12-20T01:19:21.381Z,11.38
2017-12-20T01:21:47.841Z,10.98
2017-12-20T01:24:15.253Z,13.38
2017-12-20T01:26:41.810Z,12.13
2017-12-20T01:29:08.156Z,11.57
2017-12-20T01:31:35.334Z,11.60
2017-12-20T01:34:01.873Z,11.95
2017-12-20T01:36:28.235Z,10.50
2017-12-20T01:38:54.532Z,12.80
2017-12-20T01:41:20.840Z,12.95
2017-12-20T01:43:47.176Z,12.40
2017-12-20T01:46:13.577Z,12.60
2017-12-20T01:48:39.912Z,13.43
2017-12-20T01:51:06.217Z,13.57
2017-12-20T01:53:33.304Z,13.15
2017-12-20T01:55:59.429Z,14.00
2017-12-20T01:58:25.764Z,15.00
2017-12-20T02:00:51.909Z,14.32
2017-12-20T02:03:18.985Z,13.70
2017-12-20T02:05:45.870Z,15.95
2017-12-20T02:08:12.041Z,16.30
2017-12-20T02:10:38.201Z,16.33
2017-12-20T02:13:05.064Z,17.15
2017-12-20T02:15:32.085Z,17.70
2017-12-20T02:17:58.216Z,19.42
2017-12-20T02:20:24.354Z,18.80
2017-12-20T02:22:50.527Z,20.02
2017-12-20T02:25:16.676Z,20.27
2017-12-20T02:27:43.549Z,23.08
2017-12-20T02:30:10.418Z,24.77
2017-12-20T02:32:36.553Z,22.13
2017-12-20T02:35:03.712Z,23.30
2017-12-20T02:37:29.792Z,24.83
2017-12-20T02:39:55.922Z,24.00
2017-12-20T02:42:22.045Z,24.20
2017-12-20T02:44:48.713Z,26.12
2017-12-20T02:47:14.841Z,27.40
2017-12-20T02:49:40.969Z,27.80
2017-12-20T02:52:07.829Z,28.90
2017-12-20T02:54:34.721Z,28.58
2017-12-20T02:57:00.860Z,28.48
2017-12-20T02:59:27.007Z,27.45
2017-12-20T03:01:53.194Z,27.50
2017-12-20T03:04:19.525Z,27.73
2017-12-20T03:06:46.378Z,28.92
2017-12-20T03:09:12.722Z,30.35
2017-12-20T03:11:39.085Z,28.65
2017-12-20T03:14:06.872Z,30.10
2017-12-20T03:16:33.231Z,29.70
2017-12-20T03:19:00.291Z,31.08
2017-12-20T03:21:26.424Z,29.02
2017-12-20T03:23:53.503Z,31.77
2017-12-20T03:26:19.848Z,30.85
2017-12-20T03:28:48.025Z,31.08
2017-12-20T03:31:14.822Z,33.25
2017-12-20T03:33:40.982Z,32.10
2017-12-20T03:36:07.091Z,32.40
2017-12-20T03:38:33.222Z,32.05
2017-12-20T03:40:59.371Z,29.40
2017-12-20T03:43:25.480Z,28.10
2017-12-20T03:45:52.364Z,30.00
2017-12-20T03:48:18.494Z,28.87
2017-12-20T03:50:44.625Z,29.60
2017-12-20T03:53:10.732Z,27.52
2017-12-20T03:55:36.851Z,30.45
2017-12-20T03:58:03.029Z,30.73
2017-12-20T04:00:29.313Z,28.25
2017-12-20T04:02:56.405Z,28.23
2017-12-20T04:05:22.547Z,27.17
2017-12-20T04:07:48.880Z,28.42
2017-12-20T04:10:15.031Z,27.05
2017-12-20T04:12:41.360Z,30.15
2017-12-20T04:15:08.477Z,27.92
2017-12-20T04:17:34.615Z,27.60
2017-12-20T04:20:00.962Z,26.87
2017-12-20T04:22:27.997Z,27.73
2017-12-20T04:24:54.124Z,25.70
2017-12-20T04:27:20.267Z,25.10
2017-12-20T04:29:46.448Z,23.38
2017-12-20T04:32:12.597Z,24.52
2017-12-20T04:34:38.700Z,21.73
2017-12-20T04:37:04.802Z,21.85
2017-12-20T04:39:31.113Z,21.90
2017-12-20T04:41:57.473Z,20.92
2017-12-20T04:44:23.801Z,21.98
2017-12-20T04:46:50.180Z,21.52
2017-12-20T04:49:17.265Z,21.37
2017-12-20T04:51:43.587Z,20.60
2017-12-20T04:54:09.892Z,20.95
2017-12-20T04:56:36.237Z,20.25
2017-12-20T04:59:02.841Z,19.98
2017-12-20T05:01:29.925Z,20.25
2017-12-20T05:03:57.022Z,18.60
2017-12-20T05:06:23.133Z,19.50
2017-12-20T05:08:49.237Z,19.42
2017-12-20T05:11:15.544Z,20.40
2017-12-20T05:13:41.859Z,20.00
2017-12-20T05:16:08.193Z,21.23
2017-12-20T05:18:35.265Z,20.12
2017-12-20T05:21:01.387Z,20.17
2017-12-20T05:23:28.538Z,19.35
2017-12-20T05:25:55.985Z,19.98
2017-12-20T05:28:22.216Z,20.23
2017-12-20T05:30:48.456Z,20.12
2017-12-20T05:33:14.585Z,19.08
2017-12-20T05:35:40.678Z,20.15
2017-12-20T05:38:07.536Z,19.00
2017-12-20T05:40:34.417Z,18.27
2017-12-20T05:43:01.341Z,18.98
2017-12-20T05:45:28.193Z,19.83
2017-12-20T05:47:54.760Z,20.48
2017-12-20T05:50:20.882Z,19.35
2017-12-20T05:52:47.747Z,20.60
2017-12-20T05:55:14.053Z,18.90
2017-12-20T05:57:40.198Z,20.27
2017-12-20T06:00:06.440Z,20.37
2017-12-20T06:02:32.549Z,19.20
2017-12-20T06:04:58.660Z,20.12
2017-12-20T06:07:24.830Z,19.52
2017-12-20T06:09:50.982Z,21.50
2017-12-20T06:12:17.188Z,22.90
2017-12-20T06:14:43.329Z,21.83
2017-12-20T06:17:09.468Z,22.75
2017-12-20T06:19:36.422Z,22.10
2017-12-20T06:22:04.017Z,23.35
2017-12-20T06:24:30.912Z,20.45
2017-12-20T06:26:57.029Z,22.75
2017-12-20T06:29:23.185Z,22.87
2017-12-20T06:31:49.366Z,24.70
2017-12-20T06:34:15.476Z,25.27
2017-12-20T06:36:41.605Z,24.25
2017-12-20T06:39:07.708Z,24.12
2017-12-20T06:41:33.831Z,24.95
2017-12-20T06:44:00.350Z,26.02
2017-12-20T06:46:26.545Z,27.05
2017-12-20T06:48:53.393Z,28.38
2017-12-20T06:51:19.617Z,29.50
2017-12-20T06:53:45.831Z,28.60
2017-12-20T06:56:12.021Z,28.08
2017-12-20T06:58:39.406Z,31.05
2017-12-20T07:01:05.588Z,29.00
2017-12-20T07:03:31.779Z,28.38
2017-12-20T07:05:58.688Z,29.83
2017-12-20T07:08:24.824Z,30.83
2017-12-20T07:10:51.089Z,30.37
2017-12-20T07:13:17.295Z,32.13
2017-12-20T07:15:43.406Z,32.13
2017-12-20T07:18:09.811Z,29.95
2017-12-20T07:20:35.912Z,29.50
2017-12-20T07:23:02.849Z,28.95
2017-12-20T07:25:28.954Z,33.47
2017-12-20T07:27:55.304Z,34.17
2017-12-20T07:30:21.543Z,30.75
2017-12-20T07:32:47.648Z,32.42
2017-12-20T07:35:14.613Z,32.08
2017-12-20T07:37:40.773Z,33.60
2017-12-20T07:40:06.913Z,34.85
2017-12-20T07:42:33.036Z,35.17
2017-12-20T07:44:59.965Z,33.53
2017-12-20T07:47:26.095Z,34.03
2017-12-20T07:49:52.197Z,33.17
2017-12-20T07:52:18.533Z,33.35
2017-12-20T07:54:44.648Z,33.30
2017-12-20T07:57:10.762Z,35.50
2017-12-20T07:59:36.934Z,33.13
2017-12-20T08:02:03.079Z,33.63
2017-12-20T08:04:29.292Z,32.72
2017-12-20T08:06:55.448Z,33.17
2017-12-20T08:09:21.578Z,33.75
2017-12-20T08:11:47.711Z,32.80
2017-12-20T08:14:14.037Z,34.83
2017-12-20T08:16:40.513Z,31.52
2017-12-20T08:19:07.548Z,32.60
2017-12-20T08:21:33.661Z,32.05
2017-12-20T08:23:59.976Z,30.95
2017-12-20T08:26:26.343Z,32.60
2017-12-20T08:28:53.078Z,32.80
2017-12-20T08:31:20.025Z,29.42
2017-12-20T08:33:46.176Z,30.17
2017-12-20T08:36:13.120Z,31.75
2017-12-20T08:38:39.212Z,29.75
2017-12-20T08:41:05.345Z,32.15
2017-12-20T08:43:35.554Z,32.90
2017-12-20T08:46:02.029Z,29.48
2017-12-20T08:48:28.425Z,29.23
2017-12-20T08:50:54.786Z,31.50
2017-12-20T08:53:21.076Z,28.80
2017-12-20T08:55:47.424Z,30.10
2017-12-20T08:58:14.504Z,31.85
2017-12-20T09:00:40.909Z,30.00
2017-12-20T09:03:07.265Z,27.52
2017-12-20T09:05:33.568Z,28.77
2017-12-20T09:07:59.883Z,28.25
2017-12-20T09:10:26.620Z,28.05
2017-12-20T09:12:53.917Z,28.87
2017-12-20T09:15:21.035Z,27.87
2017-12-20T09:17:47.356Z,27.62
2017-12-20T09:20:13.661Z,29.85
2017-12-20T09:22:39.994Z,27.52
2017-12-20T09:25:06.350Z,29.27
2017-12-20T09:27:34.306Z,28.85
2017-12-20T09:30:00.604Z,28.12
2017-12-20T09:32:26.934Z,28.02
2017-12-20T09:34:54.413Z,29.65
2017-12-20T09:37:21.454Z,27.27
2017-12-20T09:39:47.609Z,26.98
2017-12-20T09:42:13.741Z,26.55
2017-12-20T09:44:39.850Z,26.42
2017-12-20T09:47:05.976Z,26.58
2017-12-20T09:49:33.018Z,25.52
2017-12-20T09:51:59.891Z,25.45
2017-12-20T09:54:26.081Z,26.85
2017-12-20T09:56:52.204Z,26.37
2017-12-20T09:59:18.523Z,23.92
2017-12-20T10:01:45.584Z,24.70
2017-12-20T10:04:11.829Z,26.20
2017-12-20T10:06:38.067Z,25.85
2017-12-20T10:09:04.306Z,26.45
2017-12-20T10:11:30.422Z,25.05
2017-12-20T10:13:57.508Z,23.85
2017-12-20T10:16:30.628Z,25.23
2017-12-20T10:18:57.187Z,25.17
2017-12-20T10:21:23.337Z,27.10
2017-12-20T10:23:49.452Z,26.60
2017-12-20T10:26:15.601Z,24.63
2017-12-20T10:28:42.471Z,25.92
2017-12-20T10:31:15.522Z,27.50
2017-12-20T10:33:41.652Z,28.23
2017-12-20T10:36:08.498Z,29.15
2017-12-20T10:38:34.617Z,26.77
2017-12-20T10:41:00.735Z,30.08
2017-12-20T10:43:27.600Z,29.10
2017-12-20T10:45:54.602Z,29.20
2017-12-20T10:48:23.609Z,28.25
2017-12-20T10:50:49.767Z,29.23
2017-12-20T10:53:15.934Z,30.83
2017-12-20T10:55:42.063Z,29.95
2017-12-20T10:58:08.182Z,29.25
2017-12-20T11:00:34.306Z,30.58
2017-12-20T11:03:00.430Z,29.15
2017-12-20T11:05:26.591Z,30.37
2017-12-20T11:10:24.112Z,29.02
2017-12-20T11:12:50.263Z,29.00
2017-12-20T11:15:17.190Z,28.85
2017-12-20T11:17:44.043Z,28.58
2017-12-20T11:20:10.165Z,30.95
2017-12-20T11:22:36.357Z,29.52
2017-12-20T11:25:03.295Z,31.15
2017-12-20T11:27:35.036Z,31.73
2017-12-20T11:30:01.228Z,32.45
2017-12-20T11:32:27.369Z,31.62
2017-12-20T11:34:53.575Z,32.03
2017-12-20T11:37:20.428Z,31.50
2017-12-20T11:39:46.566Z,34.35
2017-12-20T11:44:44.125Z,35.08
2017-12-20T11:47:10.493Z,33.90
2017-12-20T11:49:36.721Z,32.20
2017-12-20T11:52:03.597Z,33.03
2017-12-20T11:54:30.473Z,33.67
2017-12-20T11:56:56.729Z,31.67
2017-12-20T12:01:55.650Z,33.20
2017-12-20T12:04:21.774Z,34.70
2017-12-20T12:06:48.686Z,34.33
2017-12-20T12:09:15.576Z,31.75
2017-12-20T12:11:41.748Z,31.20
2017-12-20T12:14:07.857Z,32.45
2017-12-20T12:16:33.957Z,34.08
2017-12-20T12:19:03.635Z,31.52
2017-12-20T12:21:29.785Z,30.55
2017-12-20T12:23:55.936Z,32.70
2017-12-20T12:26:22.108Z,30.65
2017-12-20T12:28:48.245Z,32.15
2017-12-20T12:31:14.517Z,31.20
2017-12-20T12:33:40.855Z,33.47
2017-12-20T12:36:12.049Z,31.15
2017-12-20T12:38:38.190Z,31.60
2017-12-20T12:41:05.168Z,32.00
2017-12-20T12:43:32.084Z,31.52
2017-12-20T12:45:59.037Z,30.58
2017-12-20T12:48:25.979Z,32.33
2017-12-20T12:50:52.184Z,35.70
2017-12-20T12:53:21.498Z,35.85
2017-12-20T12:55:47.846Z,34.22
2017-12-20T12:58:13.957Z,35.15
2017-12-20T13:00:40.083Z,32.70
2017-12-20T13:03:06.257Z,33.60
2017-12-20T13:05:32.568Z,35.50
2017-12-20T13:07:59.432Z,32.05
2017-12-20T13:10:30.879Z,33.22
2017-12-20T13:12:57.011Z,34.55
2017-12-20T13:15:23.223Z,34.35
2017-12-20T13:17:49.346Z,32.50
2017-12-20T13:20:15.557Z,32.78
2017-12-20T13:22:41.704Z,33.95
2017-12-20T13:25:07.870Z,33.45
2017-12-20T13:27:34.747Z,32.53
2017-12-20T13:30:02.677Z,39.22
2017-12-20T13:32:28.790Z,42.65
2017-12-20T13:34:55.646Z,42.42
2017-12-20T13:37:21.760Z,46.92
2017-12-20T13:39:47.864Z,35.97
2017-12-20T13:42:13.967Z,33.30
2017-12-20T13:44:40.263Z,34.90
2017-12-20T13:47:06.417Z,33.88
2017-12-20T13:49:40.978Z,31.40
2017-12-20T13:52:07.125Z,34.40
2017-12-20T13:54:33.351Z,33.65
2017-12-20T13:57:00.232Z,30.25
2017-12-20T13:59:27.154Z,34.38
2017-12-20T14:01:53.262Z,35.88
2017-12-20T14:04:20.120Z,34.60
2017-12-20T14:06:52.786Z,33.80
2017-12-20T14:09:18.901Z,31.20
2017-12-20T14:11:45.082Z,33.30
2017-12-20T14:14:11.203Z,33.70
2017-12-20T14:16:37.360Z,32.35
2017-12-20T14:19:03.540Z,33.55
2017-12-20T14:21:29.656Z,34.47
2017-12-20T14:23:55.788Z,32.13
2017-12-20T14:26:28.631Z,32.13
2017-12-20T14:28:54.832Z,28.87
2017-12-20T14:31:21.752Z,32.20
2017-12-20T14:33:47.901Z,30.55
2017-12-20T14:36:14.844Z,32.10
2017-12-20T14:38:41.090Z,30.67
2017-12-20T14:41:07.208Z,28.70
2017-12-20T14:43:36.757Z,30.85
2017-12-20T14:46:02.985Z,32.22
2017-12-20T14:48:29.116Z,30.23
2017-12-20T14:50:55.240Z,32.53
2017-12-20T14:53:22.080Z,30.98
2017-12-20T14:55:48.397Z,31.55
2017-12-20T14:58:15.358Z,32.22
2017-12-20T15:00:45.208Z,36.92
2017-12-20T15:03:11.414Z,34.67
2017-12-20T15:05:37.588Z,35.95
2017-12-20T15:08:03.768Z,35.92
2017-12-20T15:10:30.008Z,34.53
2017-12-20T15:12:56.138Z,39.75
2017-12-20T15:15:22.280Z,36.33
2017-12-20T15:17:48.457Z,38.50
2017-12-20T15:20:14.584Z,35.13
2017-12-20T15:22:40.749Z,36.55
2017-12-20T15:25:06.873Z,36.00
2017-12-20T15:27:36.960Z,33.95
2017-12-20T15:30:03.292Z,35.47
2017-12-20T15:32:29.460Z,35.35
2017-12-20T15:34:55.604Z,34.42
2017-12-20T15:37:22.046Z,36.47
2017-12-20T15:39:49.162Z,34.03
2017-12-20T15:42:15.550Z,31.85
2017-12-20T15:44:42.453Z,31.08
2017-12-20T15:47:08.605Z,32.15
2017-12-20T15:49:34.740Z,32.40
2017-12-20T15:52:02.053Z,31.65
2017-12-20T15:54:28.205Z,30.80
2017-12-20T15:56:54.441Z,31.23
2017-12-20T15:59:21.081Z,32.38
2017-12-20T16:01:47.180Z,27.50
2017-12-20T16:04:14.806Z,29.17
2017-12-20T16:06:40.934Z,31.30
2017-12-20T16:09:07.150Z,29.33
2017-12-20T16:11:34.014Z,28.35
2017-12-20T16:14:00.168Z,28.50
2017-12-20T16:16:27.109Z,27.23
2017-12-20T16:18:53.224Z,28.52
2017-12-20T16:21:19.429Z,29.63
2017-12-20T16:23:45.946Z,28.02
2017-12-20T16:26:12.192Z,27.98
2017-12-20T16:28:39.139Z,28.33
2017-12-20T16:31:05.358Z,28.33
2017-12-20T16:33:31.640Z,28.02
2017-12-20T16:35:58.576Z,28.92
2017-12-20T16:38:24.716Z,27.65
2017-12-20T16:40:50.846Z,31.60
2017-12-20T16:43:17.007Z,32.63
2017-12-20T16:45:43.274Z,34.15
2017-12-20T16:48:10.183Z,35.67
2017-12-20T16:50:36.432Z,34.50
2017-12-20T16:53:02.789Z,37.90
2017-12-20T16:55:34.853Z,40.28
2017-12-20T16:58:01.033Z,38.70
2017-12-20T17:00:27.212Z,36.75
2017-12-20T17:02:54.189Z,38.80
2017-12-20T17:05:20.392Z,39.40
2017-12-20T17:07:46.713Z,39.70
2017-12-20T17:10:12.869Z,39.65
2017-12-20T17:12:39.136Z,41.25
2017-12-20T17:15:05.836Z,44.83
2017-12-20T17:17:32.909Z,50.33
2017-12-20T17:19:59.084Z,45.60
2017-12-20T17:22:25.257Z,40.38
2017-12-20T17:24:51.457Z,39.35
2017-12-20T17:27:17.820Z,37.13
2017-12-20T17:29:44.307Z,39.03
2017-12-20T17:32:10.561Z,39.47
2017-12-20T17:34:36.717Z,37.58
2017-12-20T17:37:02.931Z,37.35
2017-12-20T17:39:29.793Z,35.83
2017-12-20T17:41:56.731Z,38.38
2017-12-20T17:44:23.190Z,36.65
2017-12-20T17:46:50.060Z,39.08
2017-12-20T17:49:16.299Z,38.47
2017-12-20T17:51:43.165Z,36.72
2017-12-20T17:54:09.329Z,38.55
2017-12-20T17:56:35.484Z,39.72
2017-12-20T17:59:01.673Z,35.40
2017-12-20T18:01:28.611Z,35.38
2017-12-20T18:03:54.793Z,37.22
2017-12-20T18:06:21.708Z,34.20
2017-12-20T18:08:47.860Z,33.45
2017-12-20T18:11:14.074Z,35.20
2017-12-20T18:13:41.005Z,34.70
2017-12-20T18:16:07.234Z,32.80
2017-12-20T18:18:33.580Z,31.37
2017-12-20T18:20:59.741Z,32.95
2017-12-20T18:23:25.903Z,32.78
2017-12-20T18:25:53.060Z,29.00
2017-12-20T18:28:19.860Z,30.55
2017-12-20T18:30:46.041Z,30.90
2017-12-20T18:33:15.926Z,30.92
2017-12-20T18:35:42.382Z,31.85
2017-12-20T18:38:08.514Z,28.65
2017-12-20T18:40:35.512Z,27.65
2017-12-20T18:43:01.674Z,30.50
2017-12-20T18:45:27.995Z,30.25
2017-12-20T18:47:54.294Z,28.42
2017-12-20T18:50:22.270Z,28.23
2017-12-20T18:52:48.462Z,30.08
2017-12-20T18:55:15.324Z,29.33
2017-12-20T18:57:41.568Z,29.15
2017-12-20T19:00:08.527Z,29.77
2017-12-20T19:02:34.669Z,30.80
2017-12-20T19:05:00.811Z,30.73
2017-12-20T19:07:27.685Z,30.60
2017-12-20T19:09:53.852Z,30.20
2017-12-20T19:12:20.026Z,27.95
2017-12-20T19:14:46.232Z,26.55
2017-12-20T19:17:12.436Z,25.98
2017-12-20T19:19:39.337Z,26.23
2017-12-20T19:22:05.597Z,26.65
2017-12-20T19:24:31.802Z,25.12
2017-12-20T19:26:58.706Z,29.98
2017-12-20T19:29:24.866Z,26.55
2017-12-20T19:31:51.005Z,27.08
2017-12-20T19:34:17.132Z,28.77
2017-12-20T19:36:44.144Z,29.55
2017-12-20T19:39:11.022Z,27.00
2017-12-20T19:41:37.152Z,26.90
2017-12-20T19:44:04.818Z,28.27
2017-12-20T19:46:31.814Z,23.38
2017-12-20T19:48:57.989Z,25.95
2017-12-20T19:51:24.164Z,26.90
2017-12-20T19:53:50.408Z,24.92
2017-12-20T19:56:16.530Z,25.33
2017-12-20T19:58:42.636Z,26.87
2017-12-20T20:01:08.765Z,22.67
2017-12-20T20:03:34.950Z,22.85
2017-12-20T20:06:01.156Z,23.58
2017-12-20T20:08:28.086Z,22.45
2017-12-20T20:10:54.254Z,22.65
2017-12-20T20:13:20.412Z,24.05
2017-12-20T20:15:47.264Z,22.87
2017-12-20T20:18:14.138Z,25.35
2017-12-20T20:20:40.294Z,24.23
2017-12-20T20:23:06.354Z,22.95
2017-12-20T20:25:32.456Z,26.33
2017-12-20T20:27:58.684Z,26.10
2017-12-20T20:30:24.801Z,23.42
2017-12-20T20:32:50.918Z,23.95
2017-12-20T20:35:21.044Z,23.10
2017-12-20T20:37:47.144Z,23.17
2017-12-20T20:40:13.303Z,20.65
2017-12-20T20:42:40.245Z,22.60
2017-12-20T20:45:06.365Z,23.85
2017-12-20T20:47:34.352Z,23.55
2017-12-20T20:50:00.688Z,22.62
2017-12-20T20:52:27.587Z,24.42
2017-12-20T20:54:53.897Z,23.45
2017-12-20T20:57:20.161Z,22.10
2017-12-20T20:59:46.287Z,21.40
2017-12-20T21:02:12.473Z,21.10
2017-12-20T21:04:39.328Z,19.75
2017-12-20T21:07:05.473Z,17.87
2017-12-20T21:09:31.571Z,18.02
2017-12-20T21:14:29.076Z,17.45
2017-12-20T21:16:55.228Z,19.48
2017-12-20T21:19:21.341Z,19.45
2017-12-20T21:21:47.460Z,20.20
2017-12-20T21:24:13.548Z,19.10
2017-12-20T21:26:40.227Z,20.30
2017-12-20T21:29:06.365Z,17.80
2017-12-20T21:31:32.464Z,19.60
2017-12-20T21:33:58.585Z,19.83
2017-12-20T21:36:25.489Z,20.00
2017-12-20T21:38:51.598Z,20.88
2017-12-20T21:41:18.656Z,22.58
2017-12-20T21:43:44.769Z,24.45
2017-12-20T21:46:10.935Z,21.67
2017-12-20T21:48:39.873Z,20.88
2017-12-20T21:51:06.732Z,21.70
2017-12-20T21:53:32.896Z,20.70
2017-12-20T21:56:02.156Z,21.52
2017-12-20T21:58:28.272Z,22.08
2017-12-20T22:00:54.395Z,21.33
2017-12-20T22:03:20.504Z,21.40
2017-12-20T22:05:47.520Z,22.90
2017-12-20T22:08:13.719Z,19.48
2017-12-20T22:10:39.875Z,18.85
2017-12-20T22:13:05.988Z,17.58
2017-12-20T22:15:32.151Z,19.05
2017-12-20T22:17:58.985Z,17.80
2017-12-20T22:20:25.208Z,19.40
2017-12-20T22:22:51.351Z,17.52
2017-12-20T22:25:17.458Z,18.23
2017-12-20T22:27:43.606Z,16.70
2017-12-20T22:30:10.534Z,17.15
2017-12-20T22:32:36.680Z,17.50
2017-12-20T22:35:02.815Z,17.67
2017-12-20T22:37:28.936Z,19.25
2017-12-20T22:39:55.814Z,17.77
2017-12-20T22:42:22.132Z,18.20
2017-12-20T22:44:48.461Z,16.60
2017-12-20T22:47:14.668Z,17.80
2017-12-20T22:49:40.792Z,15.13
2017-12-20T22:52:08.277Z,16.67
2017-12-20T22:54:34.533Z,15.75
2017-12-20T22:57:01.445Z,17.05
2017-12-20T23:01:58.791Z,17.00
2017-12-20T23:04:24.928Z,16.80
2017-12-20T23:06:51.208Z,15.40
2017-12-20T23:09:17.374Z,15.25
2017-12-20T23:11:43.508Z,15.52
2017-12-20T23:14:09.628Z,15.02
2017-12-20T23:16:36.640Z,16.25
2017-12-20T23:19:02.833Z,14.90
2017-12-20T23:21:29.716Z,15.43
2017-12-20T23:23:55.909Z,16.17
2017-12-20T23:26:22.068Z,17.98
2017-12-20T23:28:48.250Z,15.90
2017-12-20T23:31:14.436Z,15.20
2017-12-20T23:33:40.637Z,15.18
2017-12-20T23:36:07.221Z,15.60
2017-12-20T23:38:34.143Z,16.05
2017-12-20T23:41:00.316Z,16.35
2017-12-20T23:43:26.492Z,15.27
2017-12-20T23:45:52.673Z,14.25
2017-12-20T23:48:19.560Z,14.30
2017-12-20T23:50:45.692Z,16.65
2017-12-20T23:53:11.960Z,16.67
2017-12-20T23:55:38.275Z,15.38
2017-12-20T23:58:04.523Z,16.02
